createdAt,value
2019-04-10T00:00:11.054Z,75.25
2019-04-10T00:02:39.834Z,75.40
2019-04-10T00:05:09.576Z,74.27
2019-04-10T00:07:38.232Z,70.65
2019-04-10T00:10:07.756Z,75.62
2019-04-10T00:12:36.575Z,75.30
2019-04-10T00:15:07.160Z,81.10
2019-04-10T00:17:35.745Z,81.78
2019-04-10T00:20:05.493Z,81.05
2019-04-10T00:22:34.103Z,83.10
2019-04-10T00:25:02.627Z,82.12
2019-04-10T00:27:31.179Z,80.35
2019-04-10T00:30:00.578Z,85.95
2019-04-10T00:32:29.962Z,88.10
2019-04-10T00:34:58.753Z,85.38
2019-04-10T00:37:31.010Z,84.15
2019-04-10T00:39:57.429Z,91.05
2019-04-10T00:42:26.188Z,88.25
2019-04-10T00:44:56.402Z,100.02
2019-04-10T00:47:24.957Z,89.03
2019-04-10T00:49:53.730Z,93.90
2019-04-10T00:52:22.289Z,89.92
2019-04-10T00:54:51.072Z,91.25
2019-04-10T00:57:19.626Z,87.80
2019-04-10T00:59:48.403Z,91.15
2019-04-10T01:02:16.975Z,88.52
2019-04-10T01:04:46.648Z,85.67
2019-04-10T01:07:15.341Z,94.58
2019-04-10T01:09:43.914Z,92.90
2019-04-10T01:12:12.497Z,100.62
2019-04-10T01:14:42.097Z,94.80
2019-04-10T01:17:11.765Z,100.72
2019-04-10T01:19:40.369Z,97.15
2019-04-10T01:22:08.873Z,92.12
2019-04-10T01:24:37.645Z,96.60
2019-04-10T01:27:06.305Z,95.67
2019-04-10T01:29:35.671Z,91.10
2019-04-10T01:32:04.342Z,96.75
2019-04-10T01:34:33.694Z,96.50
2019-04-10T01:37:02.762Z,92.12
2019-04-10T01:39:32.954Z,90.38
2019-04-10T01:42:01.507Z,89.92
2019-04-10T01:44:30.926Z,87.02
2019-04-10T01:46:59.464Z,90.07
2019-04-10T01:49:28.051Z,89.97
2019-04-10T01:51:57.432Z,91.57
2019-04-10T01:54:26.965Z,87.00
2019-04-10T01:56:55.807Z,95.28
2019-04-10T01:59:25.951Z,96.15
2019-04-10T02:02:05.207Z,91.70
2019-04-10T02:04:33.817Z,86.50
2019-04-10T02:07:02.313Z,84.30
2019-04-10T02:09:31.747Z,91.28
2019-04-10T02:12:00.343Z,83.90
2019-04-10T02:14:30.010Z,88.45
2019-04-10T02:16:59.049Z,88.70
2019-04-10T02:19:27.609Z,92.37
2019-04-10T02:21:56.176Z,82.78
2019-04-10T02:24:25.223Z,88.35
2019-04-10T02:26:54.041Z,87.45
2019-04-10T02:29:22.581Z,86.30
2019-04-10T02:31:52.656Z,78.95
2019-04-10T02:34:21.502Z,84.52
2019-04-10T02:36:52.887Z,91.12
2019-04-10T02:39:31.378Z,85.90
2019-04-10T02:41:52.353Z,86.28
2019-04-10T02:44:22.777Z,86.50
2019-04-10T02:46:51.857Z,85.53
2019-04-10T02:49:22.478Z,90.60
2019-04-10T02:51:51.973Z,91.57
2019-04-10T02:54:21.287Z,89.07
2019-04-10T02:56:49.995Z,89.42
2019-04-10T02:59:18.716Z,88.70
2019-04-10T03:01:47.546Z,85.35
2019-04-10T03:04:16.580Z,90.97
2019-04-10T03:06:47.128Z,94.35
2019-04-10T03:09:35.217Z,94.67
2019-04-10T03:11:45.944Z,87.50
2019-04-10T03:14:14.863Z,88.40
2019-04-10T03:16:43.777Z,83.60
2019-04-10T03:19:12.374Z,84.60
2019-04-10T03:21:40.938Z,86.17
2019-04-10T03:24:09.717Z,82.37
2019-04-10T03:26:38.263Z,89.35
2019-04-10T03:29:07.342Z,88.00
2019-04-10T03:31:36.937Z,89.20
2019-04-10T03:34:22.350Z,89.60
2019-04-10T03:36:49.692Z,90.28
2019-04-10T03:39:18.408Z,89.10
2019-04-10T03:41:48.534Z,89.67
2019-04-10T03:44:17.119Z,86.40
2019-04-10T03:46:46.832Z,87.70
2019-04-10T03:49:15.794Z,93.35
2019-04-10T03:51:45.019Z,92.12
2019-04-10T03:54:13.568Z,84.55
2019-04-10T03:56:42.275Z,85.60
2019-04-10T03:59:11.758Z,87.50
2019-04-10T04:01:40.947Z,79.42
2019-04-10T04:04:09.461Z,90.45
2019-04-10T04:06:37.956Z,85.55
2019-04-10T04:09:10.845Z,90.42
2019-04-10T04:11:37.849Z,85.45
2019-04-10T04:14:06.441Z,88.65
2019-04-10T04:16:35.271Z,89.10
2019-04-10T04:19:03.936Z,84.50
2019-04-10T04:21:32.531Z,82.22
2019-04-10T04:24:01.501Z,85.87
2019-04-10T04:26:30.205Z,91.12
2019-04-10T04:28:59.724Z,92.37
2019-04-10T04:31:29.170Z,82.00
2019-04-10T04:33:57.735Z,89.35
2019-04-10T04:36:26.729Z,88.42
2019-04-10T04:38:55.204Z,92.42
2019-04-10T04:41:23.684Z,88.90
2019-04-10T04:43:53.257Z,89.83
2019-04-10T04:46:21.820Z,89.42
2019-04-10T04:48:50.483Z,87.02
2019-04-10T04:51:19.708Z,90.17
2019-04-10T04:53:48.335Z,85.55
2019-04-10T04:56:17.823Z,90.22
2019-04-10T04:58:47.533Z,86.42
2019-04-10T05:01:16.989Z,90.87
2019-04-10T05:03:46.361Z,88.37
2019-04-10T05:06:15.971Z,83.27
2019-04-10T05:08:44.584Z,83.95
2019-04-10T05:11:13.898Z,83.50
2019-04-10T05:13:42.724Z,80.00
2019-04-10T05:16:11.272Z,81.50
2019-04-10T05:18:39.764Z,69.67
2019-04-10T05:21:08.541Z,78.25
2019-04-10T05:23:37.087Z,79.45
2019-04-10T05:26:06.127Z,82.55
2019-04-10T05:28:34.665Z,80.22
2019-04-10T05:31:03.248Z,73.57
2019-04-10T05:33:31.796Z,77.92
2019-04-10T05:36:01.256Z,73.87
2019-04-10T05:38:29.852Z,75.08
2019-04-10T05:40:59.224Z,76.50
2019-04-10T05:43:28.179Z,81.20
2019-04-10T05:45:57.186Z,70.25
2019-04-10T05:48:26.479Z,66.92
2019-04-10T05:51:01.269Z,70.37
2019-04-10T05:53:25.316Z,72.82
2019-04-10T05:55:53.860Z,67.22
2019-04-10T05:58:22.373Z,68.30
2019-04-10T06:00:51.443Z,71.02
2019-04-10T06:03:20.702Z,62.15
2019-04-10T06:05:49.293Z,64.12
2019-04-10T06:08:18.143Z,62.80
2019-04-10T06:10:47.729Z,61.77
2019-04-10T06:13:17.170Z,60.52
2019-04-10T06:15:45.655Z,60.50
2019-04-10T06:18:15.252Z,57.95
2019-04-10T06:20:45.169Z,54.60
2019-04-10T06:23:14.777Z,56.10
2019-04-10T06:25:43.666Z,55.90
2019-04-10T06:28:12.943Z,53.33
2019-04-10T06:30:41.906Z,54.90
2019-04-10T06:33:11.629Z,53.28
2019-04-10T06:35:40.222Z,55.20
2019-04-10T06:38:08.804Z,53.55
2019-04-10T06:40:37.686Z,55.15
2019-04-10T06:43:06.572Z,54.38
2019-04-10T06:45:35.754Z,51.40
2019-04-10T06:48:04.403Z,49.50
2019-04-10T06:50:32.964Z,47.75
2019-04-10T06:53:01.445Z,48.15
2019-04-10T06:55:30.276Z,45.50
2019-04-10T06:57:59.360Z,45.15
2019-04-10T07:00:28.630Z,46.33
2019-04-10T07:02:57.210Z,44.10
2019-04-10T07:05:37.036Z,47.65
2019-04-10T07:08:05.782Z,45.00
2019-04-10T07:10:33.518Z,46.08
2019-04-10T07:12:56.503Z,48.20
2019-04-10T07:15:25.642Z,44.90
2019-04-10T07:17:55.373Z,46.60
2019-04-10T07:20:24.168Z,41.60
2019-04-10T07:22:53.365Z,44.30
2019-04-10T07:25:21.980Z,45.60
2019-04-10T07:27:50.456Z,45.67
2019-04-10T07:30:19.522Z,43.85
2019-04-10T07:32:49.239Z,45.73
2019-04-10T07:35:21.466Z,42.90
2019-04-10T07:37:51.593Z,45.08
2019-04-10T07:40:18.605Z,43.95
2019-04-10T07:42:48.264Z,43.98
2019-04-10T07:45:17.204Z,41.73
2019-04-10T07:47:46.217Z,44.20
2019-04-10T07:50:16.370Z,43.35
2019-04-10T07:52:45.888Z,43.30
2019-04-10T07:55:14.960Z,42.80
2019-04-10T07:57:46.014Z,47.17
2019-04-10T08:00:16.015Z,47.23
2019-04-10T08:02:44.840Z,46.13
2019-04-10T08:05:13.624Z,46.63
2019-04-10T08:07:43.085Z,45.12
2019-04-10T08:10:12.124Z,45.88
2019-04-10T08:12:47.676Z,45.17
2019-04-10T08:15:11.495Z,46.42
2019-04-10T08:17:40.984Z,44.40
2019-04-10T08:20:10.075Z,45.45
2019-04-10T08:22:39.317Z,43.78
2019-04-10T08:25:08.875Z,43.70
2019-04-10T08:27:38.410Z,45.78
2019-04-10T08:30:10.672Z,45.08
2019-04-10T08:32:50.829Z,45.63
2019-04-10T08:35:09.092Z,45.65
2019-04-10T08:37:38.933Z,45.70
2019-04-10T08:40:09.612Z,47.08
2019-04-10T08:42:40.208Z,47.03
2019-04-10T08:45:09.198Z,40.90
2019-04-10T08:47:37.797Z,45.12
2019-04-10T08:50:07.824Z,44.93
2019-04-10T08:52:37.088Z,47.40
2019-04-10T08:55:06.100Z,44.58
2019-04-10T08:57:34.696Z,46.02
2019-04-10T09:00:05.043Z,45.50
2019-04-10T09:02:33.868Z,45.12
2019-04-10T09:05:03.526Z,44.15
2019-04-10T09:07:32.554Z,45.60
2019-04-10T09:10:01.872Z,45.35
2019-04-10T09:12:31.549Z,46.15
2019-04-10T09:15:01.347Z,44.73
2019-04-10T09:17:31.237Z,47.80
2019-04-10T09:20:00.583Z,46.92
2019-04-10T09:22:41.867Z,44.53
2019-04-10T09:25:00.576Z,44.40
2019-04-10T09:27:29.334Z,45.60
2019-04-10T09:29:57.908Z,44.50
2019-04-10T09:32:26.600Z,44.73
2019-04-10T09:34:56.071Z,45.30
2019-04-10T09:37:24.722Z,42.62
2019-04-10T09:39:54.709Z,42.73
2019-04-10T09:42:23.664Z,42.00
2019-04-10T09:44:52.831Z,42.30
2019-04-10T09:47:21.449Z,41.70
2019-04-10T09:49:49.933Z,43.20
2019-04-10T09:52:18.726Z,43.25
2019-04-10T09:54:47.302Z,43.45
2019-04-10T09:57:15.937Z,41.60
2019-04-10T09:59:45.585Z,42.62
2019-04-10T10:02:16.046Z,43.13
2019-04-10T10:04:44.662Z,42.58
2019-04-10T10:07:14.133Z,41.68
2019-04-10T10:09:43.120Z,41.25
2019-04-10T10:12:11.776Z,41.95
2019-04-10T10:14:40.248Z,41.45
2019-04-10T10:17:08.798Z,42.13
2019-04-10T10:19:39.145Z,41.18
2019-04-10T10:22:07.785Z,40.83
2019-04-10T10:24:36.292Z,41.02
2019-04-10T10:27:05.407Z,40.88
2019-04-10T10:29:34.043Z,40.28
2019-04-10T10:32:02.637Z,41.35
2019-04-10T10:34:31.353Z,40.05
2019-04-10T10:37:03.166Z,42.88
2019-04-10T10:39:30.837Z,41.30
2019-04-10T10:41:59.336Z,41.63
2019-04-10T10:44:27.944Z,42.00
2019-04-10T10:46:56.480Z,41.00
2019-04-10T10:49:24.963Z,40.58
2019-04-10T10:51:53.564Z,39.40
2019-04-10T10:54:23.029Z,40.58
2019-04-10T10:56:52.881Z,38.90
2019-04-10T10:59:21.830Z,38.42
2019-04-10T11:01:50.412Z,38.30
2019-04-10T11:04:19.154Z,39.65
2019-04-10T11:06:54.373Z,41.37
2019-04-10T11:09:18.216Z,41.08
2019-04-10T11:11:47.115Z,40.45
2019-04-10T11:14:15.677Z,39.83
2019-04-10T11:16:45.504Z,38.95
2019-04-10T11:19:15.257Z,39.25
2019-04-10T11:21:45.077Z,38.08
2019-04-10T11:24:13.740Z,39.58
2019-04-10T11:26:42.694Z,37.73
2019-04-10T11:29:14.220Z,38.33
2019-04-10T11:31:42.863Z,39.48
2019-04-10T11:34:11.432Z,37.83
2019-04-10T11:36:40.183Z,39.05
2019-04-10T11:39:16.765Z,39.78
2019-04-10T11:41:41.118Z,38.70
2019-04-10T11:44:11.347Z,37.60
2019-04-10T11:46:41.848Z,40.52
2019-04-10T11:49:13.801Z,38.08
2019-04-10T11:51:41.075Z,40.38
2019-04-10T11:56:39.918Z,36.68
2019-04-10T11:59:11.289Z,37.85
2019-04-10T12:01:39.240Z,37.58
2019-04-10T12:04:10.191Z,36.13
2019-04-10T12:06:40.329Z,38.38
2019-04-10T12:09:47.846Z,36.17
2019-04-10T12:11:44.674Z,36.97
2019-04-10T12:14:13.372Z,35.73
2019-04-10T12:16:41.872Z,37.85
2019-04-10T12:19:11.061Z,37.83
2019-04-10T12:21:40.015Z,40.98
2019-04-10T12:24:09.541Z,35.38
2019-04-10T12:26:38.140Z,36.48
2019-04-10T12:29:06.775Z,35.52
2019-04-10T12:31:36.367Z,35.20
2019-04-10T12:34:05.109Z,35.38
2019-04-10T12:36:34.337Z,36.40
2019-04-10T12:39:05.674Z,37.38
2019-04-10T12:41:35.083Z,36.73
2019-04-10T12:44:03.864Z,36.48
2019-04-10T12:46:33.043Z,35.83
2019-04-10T12:49:03.556Z,35.70
2019-04-10T12:51:32.012Z,34.48
2019-04-10T12:54:02.564Z,35.80
2019-04-10T12:56:31.147Z,36.17
2019-04-10T12:58:59.631Z,36.23
2019-04-10T13:01:28.871Z,37.38
2019-04-10T13:03:57.817Z,35.20
2019-04-10T13:06:26.686Z,32.42
2019-04-10T13:09:04.918Z,32.65
2019-04-10T13:11:25.379Z,34.08
2019-04-10T13:13:54.632Z,32.25
2019-04-10T13:16:23.823Z,30.88
2019-04-10T13:18:52.631Z,31.95
2019-04-10T13:21:22.108Z,30.82
2019-04-10T13:23:50.705Z,31.07
2019-04-10T13:26:19.373Z,31.23
2019-04-10T13:28:47.922Z,30.52
2019-04-10T13:31:17.208Z,29.95
2019-04-10T13:33:46.825Z,27.48
2019-04-10T13:36:15.487Z,28.73
2019-04-10T13:38:44.358Z,27.22
2019-04-10T13:41:13.016Z,27.15
2019-04-10T13:43:42.309Z,27.60
2019-04-10T13:46:10.929Z,26.90
2019-04-10T13:48:39.766Z,27.05
2019-04-10T13:51:08.543Z,27.25
2019-04-10T13:53:37.679Z,26.30
2019-04-10T13:56:06.636Z,26.07
2019-04-10T13:58:35.160Z,26.57
2019-04-10T14:01:04.722Z,27.50
2019-04-10T14:03:34.307Z,26.85
2019-04-10T14:06:03.352Z,27.95
2019-04-10T14:08:54.532Z,26.80
2019-04-10T14:11:04.714Z,28.15
2019-04-10T14:13:33.229Z,28.47
2019-04-10T14:16:02.576Z,27.25
2019-04-10T14:18:31.062Z,27.40
2019-04-10T14:20:59.711Z,29.30
2019-04-10T14:23:29.552Z,28.20
2019-04-10T14:26:02.908Z,26.75
2019-04-10T14:28:36.021Z,27.48
2019-04-10T14:31:07.379Z,28.60
2019-04-10T14:33:36.155Z,27.80
2019-04-10T14:36:05.573Z,27.93
2019-04-10T14:38:34.899Z,27.40
2019-04-10T14:41:03.567Z,27.20
2019-04-10T14:43:32.634Z,26.40
2019-04-10T14:46:02.604Z,28.50
2019-04-10T14:48:32.172Z,26.37
2019-04-10T14:51:00.799Z,27.52
2019-04-10T14:53:29.300Z,27.05
2019-04-10T14:55:57.857Z,27.13
2019-04-10T14:58:28.192Z,25.90
2019-04-10T15:00:57.766Z,25.77
2019-04-10T15:03:26.556Z,26.52
2019-04-10T15:05:56.777Z,25.57
2019-04-10T15:08:25.970Z,25.30
2019-04-10T15:10:54.604Z,24.95
2019-04-10T15:13:24.361Z,25.43
2019-04-10T15:15:53.458Z,25.52
2019-04-10T15:18:22.561Z,25.70
2019-04-10T15:20:51.210Z,26.75
2019-04-10T15:23:20.352Z,24.90
2019-04-10T15:25:49.309Z,25.43
2019-04-10T15:28:18.087Z,26.10
2019-04-10T15:30:46.869Z,26.23
2019-04-10T15:33:15.443Z,27.45
2019-04-10T15:35:44.744Z,25.68
2019-04-10T15:38:13.755Z,27.90
2019-04-10T15:40:44.818Z,28.27
2019-04-10T15:43:13.614Z,28.38
2019-04-10T15:45:42.309Z,28.10
2019-04-10T15:48:10.898Z,29.98
2019-04-10T15:50:39.604Z,29.02
2019-04-10T15:53:09.653Z,29.18
2019-04-10T15:55:38.289Z,29.32
2019-04-10T15:58:06.927Z,26.73
2019-04-10T16:00:35.493Z,29.05
2019-04-10T16:03:05.000Z,33.33
2019-04-10T16:05:33.618Z,30.17
2019-04-10T16:08:03.001Z,32.15
2019-04-10T16:10:33.305Z,31.25
2019-04-10T16:13:03.938Z,30.15
2019-04-10T16:15:36.944Z,33.33
2019-04-10T16:20:41.080Z,30.45
2019-04-10T16:23:12.244Z,30.82
2019-04-10T16:25:43.396Z,32.33
2019-04-10T16:28:12.753Z,31.52
2019-04-10T16:30:41.618Z,30.75
2019-04-10T16:33:11.210Z,32.00
2019-04-10T16:35:40.057Z,31.73
2019-04-10T16:38:08.732Z,31.57
2019-04-10T16:40:38.316Z,29.92
2019-04-10T16:43:07.897Z,29.37
2019-04-10T16:45:36.639Z,31.02
2019-04-10T16:48:06.356Z,29.55
2019-04-10T16:50:36.283Z,30.72
2019-04-10T16:53:05.477Z,29.45
2019-04-10T16:55:34.624Z,28.45
2019-04-10T16:58:03.376Z,30.77
2019-04-10T17:00:32.255Z,30.50
2019-04-10T17:03:01.883Z,29.67
2019-04-10T17:05:33.278Z,29.65
2019-04-10T17:08:00.804Z,27.87
2019-04-10T17:10:29.561Z,27.00
2019-04-10T17:12:58.313Z,28.85
2019-04-10T17:15:28.067Z,28.07
2019-04-10T17:17:56.970Z,28.42
2019-04-10T17:20:26.922Z,28.73
2019-04-10T17:22:56.378Z,29.23
2019-04-10T17:25:26.255Z,28.15
2019-04-10T17:27:56.178Z,29.37
2019-04-10T17:30:25.480Z,28.05
2019-04-10T17:32:54.311Z,27.60
2019-04-10T17:35:23.347Z,28.73
2019-04-10T17:37:51.957Z,29.75
2019-04-10T17:40:30.073Z,29.10
2019-04-10T17:42:50.954Z,27.82
2019-04-10T17:45:20.630Z,29.82
2019-04-10T17:47:49.364Z,26.70
2019-04-10T17:50:18.475Z,28.17
2019-04-10T17:52:47.287Z,28.83
2019-04-10T17:55:15.800Z,28.85
2019-04-10T17:57:45.933Z,29.65
2019-04-10T18:00:18.736Z,27.75
2019-04-10T18:02:48.537Z,28.38
2019-04-10T18:05:18.007Z,26.80
2019-04-10T18:07:46.764Z,36.70
2019-04-10T18:10:16.129Z,32.23
2019-04-10T18:12:44.668Z,34.13
2019-04-10T18:15:13.531Z,26.95
2019-04-10T18:17:43.014Z,26.48
2019-04-10T18:20:11.725Z,27.15
2019-04-10T18:22:42.731Z,26.40
2019-04-10T18:25:11.899Z,24.75
2019-04-10T18:27:40.700Z,25.45
2019-04-10T18:30:10.016Z,24.40
2019-04-10T18:32:38.574Z,26.75
2019-04-10T18:35:08.757Z,24.07
2019-04-10T18:37:37.619Z,21.57
2019-04-10T18:40:07.512Z,23.85
2019-04-10T18:42:37.304Z,23.80
2019-04-10T18:45:09.304Z,25.10
2019-04-10T18:47:39.168Z,22.77
2019-04-10T18:50:08.164Z,22.95
2019-04-10T18:52:37.378Z,23.92
2019-04-10T18:55:06.259Z,24.15
2019-04-10T18:57:35.689Z,24.43
2019-04-10T19:00:20.210Z,22.55
2019-04-10T19:03:07.527Z,22.87
2019-04-10T19:05:41.005Z,22.98
2019-04-10T19:08:12.470Z,21.52
2019-04-10T19:10:39.859Z,22.25
2019-04-10T19:13:09.355Z,21.27
2019-04-10T19:15:39.920Z,20.77
2019-04-10T19:18:08.220Z,20.57
2019-04-10T19:20:36.764Z,19.60
2019-04-10T19:23:06.671Z,21.15
2019-04-10T19:25:35.529Z,21.20
2019-04-10T19:28:04.540Z,20.08
2019-04-10T19:30:35.395Z,21.17
2019-04-10T19:33:04.268Z,20.15
2019-04-10T19:35:33.015Z,20.97
2019-04-10T19:38:01.490Z,19.77
2019-04-10T19:40:30.160Z,19.25
2019-04-10T19:42:59.862Z,19.85
2019-04-10T19:45:29.900Z,18.32
2019-04-10T19:47:58.960Z,19.55
2019-04-10T19:50:27.744Z,21.55
2019-04-10T19:52:57.068Z,21.07
2019-04-10T19:55:25.654Z,20.88
2019-04-10T19:57:55.223Z,18.52
2019-04-10T20:00:31.195Z,16.10
2019-04-10T20:02:59.767Z,15.08
2019-04-10T20:05:29.372Z,17.55
2019-04-10T20:07:58.176Z,18.87
2019-04-10T20:10:27.595Z,15.80
2019-04-10T20:12:57.226Z,17.82
2019-04-10T20:15:26.726Z,17.30
2019-04-10T20:17:55.290Z,17.70
2019-04-10T20:20:23.912Z,17.27
2019-04-10T20:22:55.599Z,17.90
2019-04-10T20:25:24.213Z,17.00
2019-04-10T20:27:52.792Z,16.10
2019-04-10T20:30:23.730Z,16.12
2019-04-10T20:32:52.469Z,16.05
2019-04-10T20:35:22.304Z,16.77
2019-04-10T20:37:51.266Z,16.02
2019-04-10T20:40:20.760Z,16.62
2019-04-10T20:42:49.393Z,16.75
2019-04-10T20:45:18.011Z,18.87
2019-04-10T20:47:46.926Z,16.65
2019-04-10T20:50:15.561Z,19.98
2019-04-10T20:52:45.066Z,18.32
2019-04-10T20:55:13.877Z,19.12
2019-04-10T20:57:43.712Z,17.05
2019-04-10T21:00:14.290Z,18.02
2019-04-10T21:02:42.852Z,16.15
2019-04-10T21:05:12.565Z,18.98
2019-04-10T21:07:41.715Z,19.73
2019-04-10T21:10:10.475Z,17.17
2019-04-10T21:12:39.875Z,18.30
2019-04-10T21:15:09.021Z,17.12
2019-04-10T21:17:37.719Z,16.23
2019-04-10T21:20:07.952Z,17.17
2019-04-10T21:22:36.561Z,16.48
2019-04-10T21:25:06.745Z,15.58
2019-04-10T21:27:35.512Z,15.95
2019-04-10T21:30:22.311Z,16.62
2019-04-10T21:33:07.976Z,15.50
2019-04-10T21:35:41.517Z,15.03
2019-04-10T21:38:10.985Z,15.40
2019-04-10T21:40:39.602Z,15.00
2019-04-10T21:43:08.178Z,15.83
2019-04-10T21:45:36.735Z,17.20
2019-04-10T21:48:06.372Z,16.57
2019-04-10T21:50:35.582Z,16.35
2019-04-10T21:53:04.138Z,15.45
2019-04-10T21:55:32.707Z,16.15
2019-04-10T21:58:01.952Z,14.78
2019-04-10T22:00:49.168Z,16.50
2019-04-10T22:03:18.989Z,14.50
2019-04-10T22:05:49.429Z,15.75
2019-04-10T22:08:19.637Z,14.75
2019-04-10T22:10:50.289Z,15.10
2019-04-10T22:13:19.787Z,15.80
2019-04-10T22:15:49.101Z,15.05
2019-04-10T22:18:17.875Z,14.93
2019-04-10T22:20:46.472Z,14.33
2019-04-10T22:23:15.987Z,15.15
2019-04-10T22:25:45.785Z,13.20
2019-04-10T22:28:14.912Z,14.58
2019-04-10T22:30:43.852Z,14.73
2019-04-10T22:33:12.409Z,15.00
2019-04-10T22:35:41.998Z,14.70
2019-04-10T22:38:11.179Z,14.40
2019-04-10T22:40:40.055Z,13.60
2019-04-10T22:43:08.628Z,13.55
2019-04-10T22:45:38.108Z,13.48
2019-04-10T22:48:06.837Z,12.95
2019-04-10T22:50:36.387Z,12.70
2019-04-10T22:53:05.137Z,13.65
2019-04-10T22:55:33.831Z,13.28
2019-04-10T22:58:02.666Z,14.47
2019-04-10T23:00:32.684Z,13.03
2019-04-10T23:03:02.877Z,13.30
2019-04-10T23:05:32.339Z,12.85
2019-04-10T23:08:01.190Z,13.40
2019-04-10T23:10:29.859Z,14.18
2019-04-10T23:13:02.894Z,13.30
2019-04-10T23:15:28.685Z,14.35
2019-04-10T23:17:57.327Z,13.08
2019-04-10T23:20:26.036Z,13.48
2019-04-10T23:22:54.859Z,12.80
2019-04-10T23:25:24.583Z,14.38
2019-04-10T23:27:55.158Z,12.98
2019-04-10T23:30:24.523Z,13.25
2019-04-10T23:32:53.520Z,13.28
2019-04-10T23:35:22.284Z,13.03
2019-04-10T23:37:51.138Z,12.75
2019-04-10T23:40:20.884Z,11.97
2019-04-10T23:43:01.238Z,13.05
2019-04-10T23:45:19.805Z,12.85
2019-04-10T23:47:48.689Z,12.93
2019-04-10T23:50:18.546Z,12.65
2019-04-10T23:52:47.944Z,12.95
2019-04-10T23:55:17.648Z,12.20
2019-04-10T23:57:46.448Z,12.63
